Time;durP1;ratioP1;P1;durP2;ratioP2;P2;SDS_P1;SDS_P2;PMS_P1;PMS_P2;Temp;Humidity;BMP_temperature;BMP_pressure;BME280_temperature;BME280_humidity;BME280_pressure;Samples;Min_cycle;Max_cycle;Signal;HPM_P1;HPM_P2
2023/09/25 00:01:15;;;;;;;1999.90;999.90;;;13.30;99.90;;;;;;5084776;28;20050;-66
2023/09/25 00:03:41;;;;;;;1999.90;999.90;;;13.30;99.90;;;;;;5086345;28;20066;-66
2023/09/25 00:06:06;;;;;;;1999.90;999.90;;;13.30;99.90;;;;;;5077111;28;20056;-66
2023/09/25 00:08:32;;;;;;;1999.90;999.90;;;13.30;99.90;;;;;;5084960;28;20312;-66
2023/09/25 00:10:58;;;;;;;1999.90;999.90;;;13.20;99.90;;;;;;5079211;28;20028;-66
2023/09/25 00:13:23;;;;;;;1999.90;999.90;;;13.20;99.90;;;;;;5075591;28;20115;-66
2023/09/25 00:15:49;;;;;;;1999.90;999.90;;;13.20;99.90;;;;;;5092215;28;20040;-66
2023/09/25 00:18:16;;;;;;;1999.90;999.90;;;13.20;99.90;;;;;;5092731;28;20078;-66
2023/09/25 00:20:41;;;;;;;1999.90;999.90;;;13.20;99.90;;;;;;5081229;28;20028;-66
2023/09/25 00:23:07;;;;;;;1999.90;999.90;;;13.10;99.90;;;;;;5079342;28;20036;-66
2023/09/25 00:25:33;;;;;;;1999.90;999.90;;;13.10;99.90;;;;;;5084183;28;20016;-66
2023/09/25 00:28:00;;;;;;;1999.90;999.90;;;13.10;99.90;;;;;;5097308;28;20097;-66
2023/09/25 00:30:27;;;;;;;1999.90;999.90;;;13.10;99.90;;;;;;5088322;28;20403;-67
2023/09/25 00:32:52;;;;;;;1999.90;999.90;;;13.10;99.90;;;;;;5085332;28;20036;-66
2023/09/25 00:35:20;;;;;;;1999.90;999.90;;;13.10;99.90;;;;;;5084395;28;20077;-66
2023/09/25 00:37:46;;;;;;;1999.90;999.90;;;13.10;99.90;;;;;;5085646;28;20027;-66
2023/09/25 00:40:18;;;;;;;1999.90;999.90;;;13.00;99.90;;;;;;5088085;28;20078;-66
2023/09/25 00:42:56;;;;;;;1999.90;999.90;;;13.00;99.90;;;;;;5085854;28;20355;-66
2023/09/25 00:45:22;;;;;;;1999.90;999.90;;;13.00;99.90;;;;;;5095235;28;20036;-66
2023/09/25 00:47:50;;;;;;;1999.90;999.90;;;13.00;99.90;;;;;;5088585;28;20377;-77
2023/09/25 00:50:17;;;;;;;1999.90;999.90;;;13.00;99.90;;;;;;5087827;28;20043;-66
2023/09/25 00:52:44;;;;;;;1999.90;999.90;;;13.00;99.90;;;;;;5084047;28;20441;-66
2023/09/25 00:55:11;;;;;;;;;;;13.10;99.90;;;;;;5082406;28;20035;-66
2023/09/25 00:57:38;;;;;;;1999.90;999.90;;;13.10;99.90;;;;;;5081424;28;19963;-66
2023/09/25 01:00:04;;;;;;;1999.90;999.90;;;13.10;99.90;;;;;;5085861;28;20028;-66
2023/09/25 01:02:34;;;;;;;1999.90;999.90;;;13.10;99.90;;;;;;5086469;28;20040;-66
2023/09/25 01:05:05;;;;;;;1999.90;999.90;;;13.10;99.90;;;;;;5088568;28;20415;-78
2023/09/25 01:07:30;;;;;;;1999.90;999.90;;;13.10;99.90;;;;;;5083587;28;20372;-81
2023/09/25 01:10:14;;;;;;;1999.90;999.90;;;13.10;99.90;;;;;;5082756;28;20115;-66
2023/09/25 01:12:40;;;;;;;1999.90;999.90;;;13.10;99.90;;;;;;5086523;28;20021;-67
2023/09/25 01:15:06;;;;;;;1999.90;999.90;;;13.10;99.90;;;;;;5077566;28;20135;-67
2023/09/25 01:17:32;;;;;;;1999.90;999.90;;;13.10;99.90;;;;;;5077188;28;20056;-66
2023/09/25 01:20:00;;;;;;;1999.90;999.90;;;13.10;99.90;;;;;;5090288;28;20382;-67
2023/09/25 01:22:25;;;;;;;1999.90;999.90;;;13.10;99.90;;;;;;5090121;28;20029;-75
2023/09/25 01:24:51;;;;;;;1999.90;999.90;;;13.10;99.90;;;;;;5076589;28;20063;-66
2023/09/25 01:27:17;;;;;;;1999.90;999.90;;;13.10;99.90;;;;;;5088961;28;20025;-77
2023/09/25 01:29:43;;;;;;;1999.90;999.90;;;13.10;99.90;;;;;;5090277;28;20352;-66
2023/09/25 01:32:09;;;;;;;1999.90;999.90;;;13.10;99.90;;;;;;5087512;28;20039;-66
2023/09/25 01:34:35;;;;;;;1999.90;999.90;;;13.10;99.90;;;;;;5080258;28;20016;-66
2023/09/25 01:37:06;;;;;;;1999.90;999.90;;;13.10;99.90;;;;;;5084972;28;20040;-66
2023/09/25 01:39:35;;;;;;;1999.90;999.90;;;13.10;99.90;;;;;;5090608;28;20032;-66
2023/09/25 01:42:01;;;;;;;1999.90;999.90;;;13.10;99.90;;;;;;5090933;28;20434;-66
2023/09/25 01:44:28;;;;;;;1999.90;999.90;;;13.10;99.90;;;;;;5076372;28;20112;-67
2023/09/25 01:46:55;;;;;;;1999.90;999.90;;;13.10;99.90;;;;;;5077384;28;20446;-66
2023/09/25 01:49:20;;;;;;;1999.90;999.90;;;13.10;99.90;;;;;;5079482;28;20043;-66
2023/09/25 01:51:46;;;;;;;1999.90;999.90;;;13.10;99.90;;;;;;5084191;28;20028;-66
2023/09/25 01:54:12;;;;;;;1999.90;999.90;;;13.00;99.90;;;;;;5076362;28;20035;-67
2023/09/25 01:56:37;;;;;;;1999.90;999.90;;;13.00;99.90;;;;;;5090503;28;20023;-66
2023/09/25 01:59:03;;;;;;;1999.90;999.90;;;13.00;99.90;;;;;;5087661;28;20104;-68
2023/09/25 02:01:29;;;;;;;1999.90;999.90;;;13.00;99.90;;;;;;5077110;28;20020;-77
2023/09/25 02:03:54;;;;;;;1999.90;999.90;;;12.90;99.90;;;;;;5084265;28;20025;-67
2023/09/25 02:06:21;;;;;;;1999.90;999.90;;;12.90;99.90;;;;;;5080292;28;20070;-67
2023/09/25 02:08:47;;;;;;;1999.90;999.90;;;12.90;99.90;;;;;;5088732;28;20025;-66
2023/09/25 02:11:12;;;;;;;1999.90;999.90;;;12.90;99.90;;;;;;5088229;28;20347;-67
2023/09/25 02:13:38;;;;;;;1999.90;999.90;;;12.90;99.90;;;;;;5090900;28;20016;-66
2023/09/25 02:16:04;;;;;;;1999.90;999.90;;;12.90;99.90;;;;;;5076176;28;20047;-66
2023/09/25 02:18:29;;;;;;;1999.90;999.90;;;12.90;99.90;;;;;;5082949;28;20028;-75
2023/09/25 02:20:55;;;;;;;1999.90;999.90;;;12.90;99.90;;;;;;5082061;28;20032;-67
2023/09/25 02:23:21;;;;;;;1999.90;999.90;;;12.90;99.90;;;;;;5082773;28;20034;-66
2023/09/25 02:25:46;;;;;;;1999.90;999.90;;;12.80;99.90;;;;;;5087951;28;20050;-66
2023/09/25 02:28:12;;;;;;;1999.90;999.90;;;12.90;99.90;;;;;;5080332;28;20342;-66
2023/09/25 02:30:38;;;;;;;1999.90;999.90;;;12.90;99.90;;;;;;5092925;28;20052;-66
2023/09/25 02:33:04;;;;;;;1999.90;999.90;;;12.90;99.90;;;;;;5091421;28;20032;-66
2023/09/25 02:35:31;;;;;;;1999.90;999.90;;;12.90;99.90;;;;;;5080729;28;20025;-66
2023/09/25 02:37:57;;;;;;;1999.90;999.90;;;12.90;99.90;;;;;;5090808;28;20110;-66
2023/09/25 02:40:24;;;;;;;1999.90;999.90;;;12.90;99.90;;;;;;5088020;28;20449;-66
2023/09/25 02:42:50;;;;;;;1999.90;999.90;;;12.90;99.90;;;;;;5083001;28;20039;-66
2023/09/25 02:45:16;;;;;;;1999.90;999.90;;;12.90;99.90;;;;;;5088427;28;20024;-76
2023/09/25 02:47:42;;;;;;;1999.90;999.90;;;12.90;99.90;;;;;;5086175;28;20028;-66
2023/09/25 02:50:09;;;;;;;1999.90;999.90;;;12.90;99.90;;;;;;5085801;28;20386;-67
2023/09/25 02:52:35;;;;;;;1999.90;999.90;;;12.90;99.90;;;;;;5081629;28;20048;-66
2023/09/25 02:55:00;;;;;;;1999.90;999.90;;;12.90;99.90;;;;;;5094390;28;20157;-66
2023/09/25 02:57:26;;;;;;;1999.90;999.90;;;12.90;99.90;;;;;;5080867;28;20036;-66
2023/09/25 02:59:52;;;;;;;1999.90;999.90;;;12.90;99.90;;;;;;5083228;28;20028;-66
2023/09/25 03:02:18;;;;;;;1999.90;999.90;;;12.90;99.90;;;;;;5076714;28;20506;-66
2023/09/25 03:04:44;;;;;;;1999.90;999.90;;;12.90;99.90;;;;;;5078438;28;20039;-67
2023/09/25 03:07:10;;;;;;;1999.90;999.90;;;12.90;99.90;;;;;;5087171;28;20102;-66
2023/09/25 03:09:36;;;;;;;1999.90;999.90;;;12.90;99.90;;;;;;5085775;28;20020;-67
2023/09/25 03:12:02;;;;;;;1999.90;999.90;;;12.90;99.90;;;;;;5083158;28;20025;-77
2023/09/25 03:14:28;;;;;;;1999.90;999.90;;;12.90;99.90;;;;;;5085299;28;20066;-81
2023/09/25 03:16:54;;;;;;;1999.90;999.90;;;12.90;99.90;;;;;;5083000;28;21639;-66
2023/09/25 03:19:19;;;;;;;1999.90;999.90;;;12.90;99.90;;;;;;5075119;28;20054;-66
2023/09/25 03:21:45;;;;;;;1999.90;999.90;;;12.90;99.90;;;;;;5082119;28;20050;-66
2023/09/25 03:24:11;;;;;;;1999.90;999.90;;;12.90;99.90;;;;;;5078811;28;20032;-66
2023/09/25 03:26:40;;;;;;;1999.90;999.90;;;12.90;99.90;;;;;;5088071;28;20319;-66
2023/09/25 03:29:06;;;;;;;1999.90;999.90;;;12.90;99.90;;;;;;5077266;28;20067;-66
2023/09/25 03:31:32;;;;;;;1999.90;999.90;;;12.90;99.90;;;;;;5080603;28;20055;-66
2023/09/25 03:33:58;;;;;;;1999.90;999.90;;;12.90;99.90;;;;;;5091633;28;20040;-66
2023/09/25 03:36:24;;;;;;;1999.90;999.90;;;12.90;99.90;;;;;;5088719;28;20467;-66
2023/09/25 03:38:49;;;;;;;1999.90;999.90;;;12.90;99.90;;;;;;5084044;28;20366;-65
2023/09/25 03:41:15;;;;;;;1999.90;999.90;;;12.90;99.90;;;;;;5077673;28;20047;-66
2023/09/25 03:43:41;;;;;;;1999.90;999.90;;;12.90;99.90;;;;;;5080430;28;20036;-66
2023/09/25 03:46:07;;;;;;;1999.90;999.90;;;12.90;99.90;;;;;;5092375;28;20028;-67
2023/09/25 03:48:32;;;;;;;1999.90;999.90;;;12.80;99.90;;;;;;5094298;28;20639;-67
2023/09/25 03:50:58;;;;;;;1999.90;999.90;;;12.80;99.90;;;;;;5094258;28;20028;-67
2023/09/25 03:53:24;;;;;;;1999.90;999.90;;;12.80;99.90;;;;;;5097493;28;20065;-66
2023/09/25 03:55:50;;;;;;;1999.90;999.90;;;12.80;99.90;;;;;;5077955;28;20036;-66
2023/09/25 03:58:16;;;;;;;1999.90;999.90;;;12.80;99.90;;;;;;5078016;28;20032;-66
2023/09/25 04:00:41;;;;;;;1999.90;999.90;;;12.80;99.90;;;;;;5079949;28;20503;-66
2023/09/25 04:03:07;;;;;;;1999.90;999.90;;;12.80;99.90;;;;;;5079860;28;20130;-66
2023/09/25 04:05:33;;;;;;;1999.90;999.90;;;12.80;99.90;;;;;;5085949;28;20032;-66
2023/09/25 04:08:00;;;;;;;1999.90;999.90;;;12.80;99.90;;;;;;5089214;28;20027;-67
2023/09/25 04:10:27;;;;;;;1999.90;999.90;;;12.80;99.90;;;;;;5078212;28;20116;-80
2023/09/25 04:12:53;;;;;;;1999.90;999.90;;;12.70;99.90;;;;;;5079038;28;20040;-80
2023/09/25 04:15:22;;;;;;;1999.90;999.90;;;12.70;99.90;;;;;;5089274;28;20416;-66
2023/09/25 04:17:50;;;;;;;1999.90;999.90;;;12.70;99.90;;;;;;5078361;28;20509;-66
2023/09/25 04:20:25;;;;;;;1999.90;999.90;;;12.70;99.90;;;;;;5075894;28;20059;-73
2023/09/25 04:22:57;;;;;;;1999.90;999.90;;;12.70;99.90;;;;;;5079530;28;20158;-67
2023/09/25 04:25:24;;;;;;;1999.90;999.90;;;12.60;99.90;;;;;;5077104;28;20058;-66
2023/09/25 04:27:52;;;;;;;1999.90;999.90;;;12.60;99.90;;;;;;5077799;28;20029;-79
2023/09/25 04:30:19;;;;;;;1999.90;999.90;;;12.60;99.90;;;;;;5078774;28;20155;-66
2023/09/25 04:32:46;;;;;;;;;;;12.60;99.90;;;;;;5083146;28;20292;-66
2023/09/25 04:35:12;;;;;;;;;;;12.60;99.90;;;;;;5096272;28;19927;-66
2023/09/25 04:37:42;;;;;;;1999.90;999.90;;;12.60;99.90;;;;;;5080262;28;20292;-66
2023/09/25 04:42:47;;;;;;;1999.90;999.90;;;12.50;99.90;;;;;;5084488;28;20045;-66
2023/09/25 04:45:16;;;;;;;1999.90;999.90;;;12.50;99.90;;;;;;5077641;28;20120;-66
2023/09/25 04:47:42;;;;;;;1999.90;999.90;;;12.50;99.90;;;;;;5083307;28;20062;-66
2023/09/25 04:50:10;;;;;;;1999.90;999.90;;;12.50;99.90;;;;;;5096242;28;20028;-67
2023/09/25 04:52:38;;;;;;;1999.90;999.90;;;12.50;99.90;;;;;;5092906;28;20032;-65
2023/09/25 04:55:06;;;;;;;1999.90;999.90;;;12.50;99.90;;;;;;5092950;28;20023;-66
2023/09/25 04:57:31;;;;;;;1999.90;999.90;;;12.50;99.90;;;;;;5080707;28;20035;-66
2023/09/25 04:59:57;;;;;;;1999.90;999.90;;;12.50;99.90;;;;;;5087220;28;20028;-66
2023/09/25 05:02:23;;;;;;;1999.90;999.90;;;12.40;99.90;;;;;;5089594;28;20416;-66
2023/09/25 05:04:48;;;;;;;1999.90;999.90;;;12.40;99.90;;;;;;5088010;28;20343;-66
2023/09/25 05:07:14;;;;;;;1999.90;999.90;;;12.40;99.90;;;;;;5085958;28;20115;-78
2023/09/25 05:09:40;;;;;;;1999.90;999.90;;;12.40;99.90;;;;;;5090342;28;20107;-65
2023/09/25 05:12:06;;;;;;;1999.90;999.90;;;12.40;99.90;;;;;;5091670;28;20032;-67
2023/09/25 05:14:31;;;;;;;1999.90;999.90;;;12.40;99.90;;;;;;5087112;28;20029;-66
2023/09/25 05:16:59;;;;;;;1999.90;999.90;;;12.40;99.90;;;;;;5094946;28;20039;-80
2023/09/25 05:19:25;;;;;;;1999.90;999.90;;;12.50;99.90;;;;;;5082811;28;20024;-66
2023/09/25 05:21:51;;;;;;;1999.90;999.90;;;12.50;99.90;;;;;;5092289;28;20081;-66
2023/09/25 05:24:17;;;;;;;1999.90;999.90;;;12.50;99.90;;;;;;5085034;28;20032;-67
2023/09/25 05:26:42;;;;;;;1999.90;999.90;;;12.50;99.90;;;;;;5088267;28;20036;-66
2023/09/25 05:29:08;;;;;;;1999.90;999.90;;;12.50;99.90;;;;;;5085240;28;20024;-66
2023/09/25 05:31:34;;;;;;;1999.90;999.90;;;12.50;99.90;;;;;;5090448;28;20099;-66
2023/09/25 05:34:00;;;;;;;1999.90;999.90;;;12.50;99.90;;;;;;5094696;28;20024;-83
2023/09/25 05:36:25;;;;;;;1999.90;999.90;;;12.50;99.90;;;;;;5089307;28;20099;-65
2023/09/25 05:38:55;;;;;;;1999.90;999.90;;;12.50;99.90;;;;;;5089701;28;20032;-66
2023/09/25 05:41:21;;;;;;;1999.90;999.90;;;12.50;99.90;;;;;;5087404;28;20169;-66
2023/09/25 05:43:46;;;;;;;1999.90;999.90;;;12.50;99.90;;;;;;5088159;28;20166;-66
2023/09/25 05:46:12;;;;;;;1999.90;999.90;;;12.50;99.90;;;;;;5092091;28;20454;-66
2023/09/25 05:48:39;;;;;;;1999.90;999.90;;;12.50;99.90;;;;;;5093577;28;20040;-66
2023/09/25 05:51:05;;;;;;;1999.90;999.90;;;12.50;99.90;;;;;;5089027;28;20100;-67
2023/09/25 05:53:30;;;;;;;1999.90;999.90;;;12.50;99.90;;;;;;5077938;28;20130;-66
2023/09/25 05:55:56;;;;;;;1999.90;999.90;;;12.50;99.90;;;;;;5075393;28;20313;-66
2023/09/25 05:58:22;;;;;;;1999.90;999.90;;;12.50;99.90;;;;;;5084810;28;20028;-79
2023/09/25 06:00:48;;;;;;;1999.90;999.90;;;12.50;99.90;;;;;;5075714;28;20039;-80
2023/09/25 06:03:14;;;;;;;1999.90;999.90;;;12.50;99.90;;;;;;5082309;28;20028;-67
2023/09/25 06:05:40;;;;;;;1999.90;999.90;;;12.50;99.90;;;;;;5087373;28;20314;-66
2023/09/25 06:08:06;;;;;;;1999.90;999.90;;;12.50;99.90;;;;;;5081867;28;20039;-66
2023/09/25 06:10:33;;;;;;;1999.90;999.90;;;12.50;99.90;;;;;;5077913;28;20111;-78
2023/09/25 06:13:01;;;;;;;1999.90;999.90;;;12.50;99.90;;;;;;5081954;28;20028;-66
2023/09/25 06:15:31;;;;;;;1999.90;999.90;;;12.50;99.90;;;;;;5080234;28;20093;-66
2023/09/25 06:17:59;;;;;;;1999.90;999.90;;;12.60;99.90;;;;;;5088504;28;20043;-67
2023/09/25 06:20:27;;;;;;;1999.90;999.90;;;12.60;99.90;;;;;;5088208;28;20446;-66
2023/09/25 06:22:53;;;;;;;1999.90;999.90;;;12.60;99.90;;;;;;5076660;28;20048;-66
2023/09/25 06:25:19;;;;;;;1999.90;999.90;;;12.70;99.90;;;;;;5079091;28;20036;-82
2023/09/25 06:27:45;;;;;;;1999.90;999.90;;;12.70;99.90;;;;;;5075574;28;20031;-66
2023/09/25 06:30:12;;;;;;;1999.90;999.90;;;12.80;99.90;;;;;;5078994;28;20304;-65
2023/09/25 06:32:38;;;;;;;1999.90;999.90;;;12.80;99.90;;;;;;5075414;28;20074;-66
2023/09/25 06:35:08;;;;;;;1999.90;999.90;;;12.80;99.90;;;;;;5074468;28;20496;-67
2023/09/25 06:37:34;;;;;;;1999.90;999.90;;;12.90;99.90;;;;;;5086799;28;20035;-65
2023/09/25 06:40:00;;;;;;;1999.90;999.90;;;13.00;99.90;;;;;;5077417;28;20327;-66
2023/09/25 06:42:26;;;;;;;1999.90;999.90;;;13.00;99.90;;;;;;5077626;28;20028;-67
2023/09/25 06:44:52;;;;;;;1999.90;999.90;;;13.00;99.90;;;;;;5085801;28;20042;-66
2023/09/25 06:47:18;;;;;;;1999.90;999.90;;;13.00;99.90;;;;;;5090995;28;20036;-66
2023/09/25 06:49:44;;;;;;;1999.90;999.90;;;13.10;99.90;;;;;;5078016;28;20070;-66
2023/09/25 06:52:10;;;;;;;1999.90;999.90;;;13.10;99.90;;;;;;5087196;28;20024;-66
2023/09/25 06:54:36;;;;;;;1999.90;999.90;;;13.20;99.90;;;;;;5084865;28;20019;-66
2023/09/25 06:57:01;;;;;;;1999.90;999.90;;;13.20;99.90;;;;;;5085720;28;20369;-66
2023/09/25 06:59:32;;;;;;;1999.90;999.90;;;13.30;99.90;;;;;;5083406;28;20026;-66
2023/09/25 07:01:58;;;;;;;1999.90;999.90;;;13.30;99.90;;;;;;5083716;28;20445;-66
2023/09/25 07:04:23;;;;;;;1999.90;999.90;;;13.40;99.90;;;;;;5077500;28;20024;-66
2023/09/25 07:06:50;;;;;;;1999.90;999.90;;;13.40;99.90;;;;;;5081595;28;20484;-66
2023/09/25 07:09:15;;;;;;;1999.90;999.90;;;13.50;99.90;;;;;;5077657;28;20028;-66
2023/09/25 07:11:41;;;;;;;1999.90;999.90;;;13.50;99.90;;;;;;5081618;28;20051;-80
2023/09/25 07:14:07;;;;;;;1999.90;999.90;;;13.70;99.90;;;;;;5084810;28;20025;-66
2023/09/25 07:16:35;;;;;;;1999.90;999.90;;;13.70;99.90;;;;;;5079592;28;20052;-80
2023/09/25 07:19:00;;;;;;;1999.90;999.90;;;13.90;99.90;;;;;;5083503;28;20063;-66
2023/09/25 07:21:26;;;;;;;1999.90;999.90;;;14.00;99.90;;;;;;5083128;28;20056;-66
2023/09/25 07:23:52;;;;;;;1999.90;999.90;;;14.20;99.90;;;;;;5076954;28;20320;-66
2023/09/25 07:26:19;;;;;;;1999.90;999.90;;;14.30;99.90;;;;;;5077852;28;20427;-65
2023/09/25 07:28:47;;;;;;;1999.90;999.90;;;14.30;99.90;;;;;;5080535;28;20024;-66
2023/09/25 07:31:18;;;;;;;1999.90;999.90;;;14.50;99.90;;;;;;5082797;28;20064;-66
2023/09/25 07:33:44;;;;;;;1999.90;999.90;;;14.60;99.90;;;;;;5084560;28;20391;-66
2023/09/25 07:36:10;;;;;;;1999.90;999.90;;;14.60;99.90;;;;;;5085801;28;20063;-66
2023/09/25 07:38:35;;;;;;;1999.90;999.90;;;14.80;99.90;;;;;;5081672;28;20533;-66
2023/09/25 07:41:01;;;;;;;1999.90;999.90;;;14.80;99.90;;;;;;5095781;28;20312;-66
2023/09/25 07:43:29;;;;;;;1999.90;999.90;;;14.90;99.90;;;;;;5085585;28;20024;-66
2023/09/25 07:45:55;;;;;;;1999.90;999.90;;;14.90;99.90;;;;;;5077238;28;20408;-65
2023/09/25 07:48:21;;;;;;;1999.90;999.90;;;15.00;99.90;;;;;;5084719;28;20052;-66
2023/09/25 07:50:47;;;;;;;1999.90;999.90;;;15.10;99.90;;;;;;5077349;28;20056;-66
2023/09/25 07:53:13;;;;;;;1999.90;999.90;;;15.10;99.90;;;;;;5089415;28;20032;-66
2023/09/25 07:55:40;;;;;;;1999.90;999.90;;;15.20;99.90;;;;;;5088260;28;20042;-66
2023/09/25 07:58:06;;;;;;;1999.90;999.90;;;15.10;99.90;;;;;;5081557;28;20031;-66
2023/09/25 08:00:39;;;;;;;1999.90;999.90;;;15.10;99.90;;;;;;5090304;28;20028;-67
2023/09/25 08:03:06;;;;;;;1999.90;999.90;;;15.10;99.90;;;;;;5094381;28;20031;-67
2023/09/25 08:05:32;;;;;;;1999.90;999.90;;;15.10;99.90;;;;;;5099335;28;20063;-66
2023/09/25 08:07:58;;;;;;;1999.90;999.90;;;15.20;99.90;;;;;;5082372;28;20028;-66
2023/09/25 08:10:24;;;;;;;1999.90;999.90;;;15.20;99.90;;;;;;5078679;28;20024;-66
2023/09/25 08:12:50;;;;;;;1999.90;999.90;;;15.30;99.90;;;;;;5074759;28;20027;-66
2023/09/25 08:15:16;;;;;;;1999.90;999.90;;;15.50;99.90;;;;;;5076887;28;20104;-78
2023/09/25 08:17:46;;;;;;;1999.90;999.90;;;15.60;99.90;;;;;;5075977;28;20021;-66
2023/09/25 08:20:22;;;;;;;1999.90;999.90;;;15.70;99.90;;;;;;5080754;28;20024;-66
2023/09/25 08:22:52;;;;;;;1999.90;999.90;;;15.80;99.90;;;;;;5085979;28;20036;-66
2023/09/25 08:25:18;;;;;;;1999.90;999.90;;;16.00;99.90;;;;;;5082699;28;20315;-66
2023/09/25 08:27:44;;;;;;;1999.90;999.90;;;16.10;99.90;;;;;;5074370;28;20029;-66
2023/09/25 08:30:12;;;;;;;1999.90;999.90;;;16.20;99.90;;;;;;5079122;28;20058;-76
2023/09/25 08:32:38;;;;;;;1999.90;999.90;;;16.30;99.90;;;;;;5081629;28;20288;-66
2023/09/25 08:35:04;;;;;;;1999.90;999.90;;;16.50;99.90;;;;;;5073780;28;20108;-67
2023/09/25 08:37:30;;;;;;;;;;;16.60;99.90;;;;;;5077219;28;20113;-67
2023/09/25 08:39:56;;;;;;;1999.90;999.90;;;16.70;99.90;;;;;;5085904;28;19912;-66
2023/09/25 08:42:25;;;;;;;1999.90;999.90;;;16.80;99.90;;;;;;5082024;28;20344;-66
2023/09/25 08:44:52;;;;;;;1999.90;999.90;;;16.90;99.90;;;;;;5086386;28;20265;-67
2023/09/25 08:47:19;;;;;;;1999.90;999.90;;;17.00;99.90;;;;;;5095371;28;20024;-67
2023/09/25 08:49:51;;;;;;;;;;;17.10;99.90;;;;;;5095888;28;20031;-66
2023/09/25 08:52:18;;;;;;;1999.90;999.90;;;17.20;99.90;;;;;;5085385;28;19915;-67
2023/09/25 08:54:45;;;;;;;1999.90;999.90;;;17.30;99.90;;;;;;5093075;28;20026;-68
2023/09/25 08:57:12;;;;;;;1999.90;999.90;;;17.50;99.90;;;;;;5081385;28;20033;-67
2023/09/25 08:59:39;;;;;;;1999.90;999.90;;;17.60;99.90;;;;;;5084166;28;20407;-67
2023/09/25 09:02:05;;;;;;;;;;;17.60;99.90;;;;;;5080832;28;20028;-66
2023/09/25 09:04:31;;;;;;;1999.90;999.90;;;17.70;99.90;;;;;;5079911;28;19912;-67
2023/09/25 09:06:56;;;;;;;1999.90;999.90;;;17.90;99.90;;;;;;5082837;28;20028;-67
2023/09/25 09:09:22;;;;;;;1999.90;999.90;;;18.00;99.90;;;;;;5088915;28;20024;-75
2023/09/25 09:11:51;;;;;;;1999.90;999.90;;;17.90;99.90;;;;;;5076715;28;20311;-67
2023/09/25 09:14:39;;;;;;;1999.90;999.90;;;18.00;99.90;;;;;;5077501;28;20442;-67
2023/09/25 09:17:07;;;;;;;1999.90;999.90;;;18.10;99.90;;;;;;5078057;28;20110;-67
2023/09/25 09:19:57;;;;;;;1999.90;999.90;;;18.40;99.90;;;;;;5084014;28;20020;-66
2023/09/25 09:22:23;;;;;;;1999.90;999.90;;;18.50;99.90;;;;;;5078584;28;20044;-67
2023/09/25 09:24:51;;;;;;;1999.90;999.90;;;18.50;99.90;;;;;;5080401;28;20021;-67
2023/09/25 09:27:20;;;;;;;1999.90;999.90;;;18.60;99.90;;;;;;5077334;28;20024;-67
2023/09/25 09:29:46;;;;;;;1999.90;999.90;;;18.60;99.90;;;;;;5085704;28;20032;-67
2023/09/25 09:32:14;;;;;;;1999.90;999.90;;;18.80;99.90;;;;;;5079637;28;20300;-66
2023/09/25 09:34:40;;;;;;;1999.90;999.90;;;18.90;99.90;;;;;;5080774;28;20296;-67
2023/09/25 09:37:09;;;;;;;1999.90;999.90;;;19.00;99.90;;;;;;5081045;28;20032;-67
2023/09/25 09:39:36;;;;;;;1999.90;999.90;;;19.10;99.90;;;;;;5078399;28;20024;-78
2023/09/25 09:42:08;;;;;;;1999.90;999.90;;;19.10;99.90;;;;;;5080140;28;20029;-67
2023/09/25 09:44:37;;;;;;;1999.90;999.90;;;19.10;99.90;;;;;;5080037;28;20115;-67
2023/09/25 09:47:05;;;;;;;1999.90;999.90;;;19.00;99.90;;;;;;5088893;28;20322;-69
2023/09/25 09:49:34;;;;;;;1999.90;999.90;;;19.00;99.90;;;;;;5089713;28;20090;-67
2023/09/25 09:52:04;;;;;;;1999.90;999.90;;;19.10;99.90;;;;;;5080758;28;20025;-76
2023/09/25 09:54:34;;;;;;;1999.90;999.90;;;19.20;99.90;;;;;;5083362;28;20032;-67
2023/09/25 09:57:01;;;;;;;1999.90;999.90;;;19.20;99.90;;;;;;5075349;28;20043;-67
2023/09/25 09:59:26;;;;;;;;;;;19.20;99.90;;;;;;5081493;28;20431;-67
2023/09/25 10:01:52;;;;;;;1999.90;999.90;;;19.20;99.90;;;;;;5075745;28;19909;-67
2023/09/25 10:04:18;;;;;;;1999.90;999.90;;;19.20;99.90;;;;;;5076733;28;20033;-67
2023/09/25 10:07:08;;;;;;;1999.90;999.90;;;19.20;99.90;;;;;;5086723;28;20028;-67
2023/09/25 10:09:34;;;;;;;1999.90;999.90;;;19.30;99.90;;;;;;5076506;28;20438;-68
2023/09/25 10:12:02;;;;;;;1999.90;999.90;;;19.30;99.90;;;;;;5075613;28;20369;-67
2023/09/25 10:14:29;;;;;;;1999.90;999.90;;;19.30;99.90;;;;;;5076294;28;20040;-67
2023/09/25 10:17:04;;;;;;;1999.90;999.90;;;19.50;99.90;;;;;;5080151;28;20028;-67
2023/09/25 10:19:36;;;;;;;1999.90;999.90;;;19.60;99.90;;;;;;5075418;28;20451;-67
2023/09/25 10:22:12;;;;;;;1999.90;999.90;;;19.90;99.90;;;;;;5077267;28;20378;-67
2023/09/25 10:24:41;;;;;;;1999.90;999.90;;;20.00;99.90;;;;;;5077507;28;20040;-67
2023/09/25 10:27:09;;;;;;;1999.90;999.90;;;20.00;99.90;;;;;;5078705;28;20435;-67
2023/09/25 10:29:34;;;;;;;1999.90;999.90;;;19.90;99.90;;;;;;5083892;28;20059;-67
2023/09/25 10:32:01;;;;;;;1999.90;999.90;;;19.90;99.90;;;;;;5074781;28;20052;-66
2023/09/25 10:34:29;;;;;;;1999.90;999.90;;;20.00;99.90;;;;;;5083616;28;20314;-67
2023/09/25 10:37:04;;;;;;;1999.90;999.90;;;19.90;99.90;;;;;;5078010;28;20417;-67
2023/09/25 10:39:30;;;;;;;1999.90;999.90;;;19.90;99.90;;;;;;5074201;28;20063;-67
2023/09/25 10:42:09;;;;;;;1999.90;999.90;;;20.00;99.90;;;;;;5075560;28;20060;-67
2023/09/25 10:44:36;;;;;;;1999.90;999.90;;;20.00;99.90;;;;;;5080649;28;20032;-67
2023/09/25 10:47:09;;;;;;;1999.90;999.90;;;20.10;99.90;;;;;;5089793;28;20081;-67
2023/09/25 10:49:35;;;;;;;1999.90;999.90;;;20.10;99.90;;;;;;5087879;28;20131;-67
2023/09/25 10:52:03;;;;;;;1999.90;999.90;;;20.20;99.90;;;;;;5090897;28;20085;-67
2023/09/25 10:54:29;;;;;;;1999.90;999.90;;;20.20;99.90;;;;;;5090462;28;20036;-67
2023/09/25 10:56:59;;;;;;;1999.90;999.90;;;20.20;99.90;;;;;;5087052;28;20048;-67
2023/09/25 10:59:27;;;;;;;1999.90;999.90;;;20.30;99.90;;;;;;5077872;28;20055;-67
2023/09/25 11:01:53;;;;;;;1999.90;999.90;;;20.30;99.90;;;;;;5089843;28;20040;-72
2023/09/25 11:04:19;;;;;;;1999.90;999.90;;;20.40;99.90;;;;;;5083051;28;20032;-67
2023/09/25 11:06:46;;;;;;;1999.90;999.90;;;20.40;99.90;;;;;;5090025;28;20077;-66
2023/09/25 11:09:18;;;;;;;1999.90;999.90;;;20.40;99.90;;;;;;5085033;28;20035;-67
2023/09/25 11:11:45;;;;;;;1999.90;999.90;;;20.40;99.90;;;;;;5077597;28;20376;-67
2023/09/25 11:14:11;;;;;;;;;;;20.50;99.90;;;;;;5098274;28;20034;-67
2023/09/25 11:16:37;;;;;;;1999.90;999.90;;;20.70;99.90;;;;;;5080886;28;20318;-67
2023/09/25 11:19:10;;;;;;;1999.90;999.90;;;20.90;99.90;;;;;;5076760;28;20035;-78
2023/09/25 11:21:37;;;;;;;1999.90;999.90;;;21.20;99.90;;;;;;5081908;28;20417;-67
2023/09/25 11:24:08;;;;;;;1999.90;999.90;;;21.20;99.90;;;;;;5085209;28;20071;-67
2023/09/25 11:26:38;;;;;;;1999.90;999.90;;;21.30;99.90;;;;;;5078718;28;20032;-69
2023/09/25 11:29:11;;;;;;;1999.90;999.90;;;21.20;99.90;;;;;;5086675;28;20330;-67
2023/09/25 11:31:38;;;;;;;1999.90;999.90;;;21.20;99.90;;;;;;5093321;28;20028;-67
2023/09/25 11:34:06;;;;;;;1999.90;999.90;;;21.10;99.90;;;;;;5092899;28;20328;-70
2023/09/25 11:36:33;;;;;;;1999.90;999.90;;;21.00;99.90;;;;;;5079201;28;20028;-67
2023/09/25 11:38:58;;;;;;;1999.90;999.90;;;20.80;99.90;;;;;;5088674;28;20032;-67
2023/09/25 11:41:24;;;;;;;1999.90;999.90;;;20.60;99.90;;;;;;5080998;28;20370;-67
2023/09/25 11:43:50;;;;;;;1999.90;999.90;;;20.50;99.90;;;;;;5077765;28;20050;-67
2023/09/25 11:46:16;;;;;;;1999.90;999.90;;;20.40;99.90;;;;;;5079895;28;20549;-67
2023/09/25 11:48:42;;;;;;;1999.90;999.90;;;20.30;99.90;;;;;;5089661;28;20134;-66
2023/09/25 11:51:08;;;;;;;1999.90;999.90;;;20.20;99.90;;;;;;5090852;28;20029;-67
2023/09/25 11:53:34;;;;;;;1999.90;999.90;;;20.10;99.90;;;;;;5083556;28;20107;-67
2023/09/25 11:56:00;;;;;;;1999.90;999.90;;;20.20;99.90;;;;;;5082049;28;20115;-67
2023/09/25 11:58:28;;;;;;;1999.90;999.90;;;20.30;99.90;;;;;;5075118;28;20040;-67
2023/09/25 12:00:54;;;;;;;1999.90;999.90;;;20.40;99.90;;;;;;5074786;28;20040;-67
2023/09/25 12:03:19;;;;;;;1999.90;999.90;;;20.60;99.90;;;;;;5076290;28;20033;-67